sensor_id;sensor_type;location;lat;lon;timestamp;pressure;altitude;pressure_sealevel;temperature;humidity
52469;BME280;38381;53.688;10.776;2022-11-15T00:04:36;100901.50;;;5.63;95.08
52469;BME280;38381;53.688;10.776;2022-11-15T00:09:37;100897.16;;;5.61;94.52
52469;BME280;38381;53.688;10.776;2022-11-15T00:14:37;100893.03;;;5.66;94.73
52469;BME280;38381;53.688;10.776;2022-11-15T00:19:37;100875.59;;;5.57;94.58
52469;BME280;38381;53.688;10.776;2022-11-15T00:24:38;100879.94;;;5.58;94.35
52469;BME280;38381;53.688;10.776;2022-11-15T00:29:38;100866.06;;;5.53;94.58
52469;BME280;38381;53.688;10.776;2022-11-15T00:34:43;100873.13;;;5.60;94.42
52469;BME280;38381;53.688;10.776;2022-11-15T00:39:43;100868.44;;;5.47;94.41
52469;BME280;38381;53.688;10.776;2022-11-15T00:44:44;100875.25;;;5.45;95.11
52469;BME280;38381;53.688;10.776;2022-11-15T00:49:44;100872.84;;;5.50;94.87
52469;BME280;38381;53.688;10.776;2022-11-15T00:54:44;100867.88;;;5.56;94.48
52469;BME280;38381;53.688;10.776;2022-11-15T00:59:45;100867.81;;;5.54;94.46
52469;BME280;38381;53.688;10.776;2022-11-15T01:04:45;100859.81;;;5.45;94.12
52469;BME280;38381;53.688;10.776;2022-11-15T01:09:46;100859.09;;;5.49;94.49
52469;BME280;38381;53.688;10.776;2022-11-15T01:14:46;100860.66;;;5.44;94.84
52469;BME280;38381;53.688;10.776;2022-11-15T01:19:47;100841.63;;;5.37;94.43
52469;BME280;38381;53.688;10.776;2022-11-15T01:24:49;100841.56;;;5.36;94.28
52469;BME280;38381;53.688;10.776;2022-11-15T01:29:50;100833.31;;;5.17;94.31
52469;BME280;38381;53.688;10.776;2022-11-15T01:34:50;100838.53;;;5.20;93.72
52469;BME280;38381;53.688;10.776;2022-11-15T01:39:50;100822.06;;;5.14;95.06
52469;BME280;38381;53.688;10.776;2022-11-15T01:44:51;100824.81;;;5.20;94.14
52469;BME280;38381;53.688;10.776;2022-11-15T02:00:04;100819.25;;;5.04;94.81
52469;BME280;38381;53.688;10.776;2022-11-15T02:05:04;100812.81;;;4.90;94.86
52469;BME280;38381;53.688;10.776;2022-11-15T02:10:12;100799.53;;;4.76;95.96
52469;BME280;38381;53.688;10.776;2022-11-15T02:15:13;100797.97;;;4.81;95.47
52469;BME280;38381;53.688;10.776;2022-11-15T02:20:36;100797.69;;;4.72;95.78
52469;BME280;38381;53.688;10.776;2022-11-15T02:36:33;100801.06;;;4.70;95.11
52469;BME280;38381;53.688;10.776;2022-11-15T02:41:45;100793.53;;;4.76;94.85
52469;BME280;38381;53.688;10.776;2022-11-15T02:47:05;100803.66;;;4.71;95.08
52469;BME280;38381;53.688;10.776;2022-11-15T02:52:18;100788.41;;;4.76;94.82
52469;BME280;38381;53.688;10.776;2022-11-15T02:57:31;100802.16;;;4.51;95.45
52469;BME280;38381;53.688;10.776;2022-11-15T03:02:42;100799.63;;;4.52;95.86
52469;BME280;38381;53.688;10.776;2022-11-15T03:08:00;100792.84;;;4.54;95.26
52469;BME280;38381;53.688;10.776;2022-11-15T03:13:21;100795.22;;;4.48;96.47
52469;BME280;38381;53.688;10.776;2022-11-15T03:18:32;100794.31;;;4.46;95.75
52469;BME280;38381;53.688;10.776;2022-11-15T03:23:34;100797.00;;;4.49;95.40
52469;BME280;38381;53.688;10.776;2022-11-15T03:28:41;100795.28;;;4.50;95.42
52469;BME280;38381;53.688;10.776;2022-11-15T03:33:46;100790.00;;;4.45;95.04
52469;BME280;38381;53.688;10.776;2022-11-15T03:38:46;100795.88;;;4.41;95.87
52469;BME280;38381;53.688;10.776;2022-11-15T03:43:56;100793.31;;;4.41;95.76
52469;BME280;38381;53.688;10.776;2022-11-15T03:49:22;100794.44;;;4.49;94.99
52469;BME280;38381;53.688;10.776;2022-11-15T03:54:26;100802.84;;;4.45;94.99
52469;BME280;38381;53.688;10.776;2022-11-15T03:59:26;100801.16;;;4.46;94.97
52469;BME280;38381;53.688;10.776;2022-11-15T04:04:26;100792.47;;;4.42;94.89
52469;BME280;38381;53.688;10.776;2022-11-15T04:09:27;100791.50;;;4.38;94.90
52469;BME280;38381;53.688;10.776;2022-11-15T04:14:27;100785.75;;;4.46;94.38
52469;BME280;38381;53.688;10.776;2022-11-15T04:19:28;100775.09;;;4.33;94.38
52469;BME280;38381;53.688;10.776;2022-11-15T04:24:47;100795.63;;;4.33;94.00
52469;BME280;38381;53.688;10.776;2022-11-15T04:29:47;100786.16;;;4.32;94.65
52469;BME280;38381;53.688;10.776;2022-11-15T04:34:47;100779.34;;;4.33;93.82
52469;BME280;38381;53.688;10.776;2022-11-15T04:39:48;100792.03;;;4.28;93.69
52469;BME280;38381;53.688;10.776;2022-11-15T04:44:48;100786.75;;;4.23;93.47
52469;BME280;38381;53.688;10.776;2022-11-15T04:49:48;100777.06;;;4.15;93.80
52469;BME280;38381;53.688;10.776;2022-11-15T04:54:49;100783.06;;;4.15;94.11
52469;BME280;38381;53.688;10.776;2022-11-15T04:59:49;100781.00;;;4.05;93.77
52469;BME280;38381;53.688;10.776;2022-11-15T05:04:50;100785.28;;;4.05;93.79
52469;BME280;38381;53.688;10.776;2022-11-15T05:09:50;100785.16;;;4.01;93.56
52469;BME280;38381;53.688;10.776;2022-11-15T05:14:50;100790.09;;;3.95;94.09
52469;BME280;38381;53.688;10.776;2022-11-15T05:19:51;100788.66;;;4.03;94.73
52469;BME280;38381;53.688;10.776;2022-11-15T05:24:52;100781.22;;;4.11;95.99
52469;BME280;38381;53.688;10.776;2022-11-15T05:29:52;100779.97;;;4.26;97.30
52469;BME280;38381;53.688;10.776;2022-11-15T05:34:52;100789.72;;;4.36;99.39
52469;BME280;38381;53.688;10.776;2022-11-15T05:39:54;100774.59;;;4.45;98.43
52469;BME280;38381;53.688;10.776;2022-11-15T05:44:56;100777.69;;;4.62;99.20
52469;BME280;38381;53.688;10.776;2022-11-15T05:49:57;100778.56;;;4.62;98.78
52469;BME280;38381;53.688;10.776;2022-11-15T05:54:58;100783.88;;;4.69;98.69
52469;BME280;38381;53.688;10.776;2022-11-15T05:59:59;100778.19;;;4.79;99.28
52469;BME280;38381;53.688;10.776;2022-11-15T06:05:00;100777.56;;;4.86;98.49
52469;BME280;38381;53.688;10.776;2022-11-15T06:10:00;100773.38;;;4.90;98.74
52469;BME280;38381;53.688;10.776;2022-11-15T06:15:01;100780.22;;;4.89;98.10
52469;BME280;38381;53.688;10.776;2022-11-15T06:20:01;100785.34;;;4.89;97.87
52469;BME280;38381;53.688;10.776;2022-11-15T06:25:02;100787.19;;;4.93;98.49
52469;BME280;38381;53.688;10.776;2022-11-15T06:30:03;100792.78;;;5.09;97.47
52469;BME280;38381;53.688;10.776;2022-11-15T06:35:04;100798.13;;;5.15;96.90
52469;BME280;38381;53.688;10.776;2022-11-15T06:40:06;100797.38;;;5.19;95.87
52469;BME280;38381;53.688;10.776;2022-11-15T06:45:07;100806.94;;;5.23;95.54
52469;BME280;38381;53.688;10.776;2022-11-15T06:50:08;100799.06;;;5.18;96.21
52469;BME280;38381;53.688;10.776;2022-11-15T06:55:08;100805.09;;;5.19;96.00
52469;BME280;38381;53.688;10.776;2022-11-15T07:00:10;100808.88;;;5.32;95.87
52469;BME280;38381;53.688;10.776;2022-11-15T07:05:11;100821.97;;;5.39;95.56
52469;BME280;38381;53.688;10.776;2022-11-15T07:10:11;100820.66;;;5.23;96.52
52469;BME280;38381;53.688;10.776;2022-11-15T07:15:12;100822.59;;;5.32;96.51
52469;BME280;38381;53.688;10.776;2022-11-15T07:20:13;100825.28;;;5.35;97.48
52469;BME280;38381;53.688;10.776;2022-11-15T07:25:13;100819.28;;;5.36;97.87
52469;BME280;38381;53.688;10.776;2022-11-15T07:30:14;100824.84;;;5.50;97.27
52469;BME280;38381;53.688;10.776;2022-11-15T07:35:14;100822.72;;;5.67;97.48
52469;BME280;38381;53.688;10.776;2022-11-15T07:40:14;100826.31;;;5.74;97.52
52469;BME280;38381;53.688;10.776;2022-11-15T07:45:15;100833.50;;;5.85;97.32
52469;BME280;38381;53.688;10.776;2022-11-15T07:50:16;100833.06;;;6.00;96.86
52469;BME280;38381;53.688;10.776;2022-11-15T07:55:17;100847.97;;;6.12;96.79
52469;BME280;38381;53.688;10.776;2022-11-15T08:00:18;100841.41;;;6.23;96.55
52469;BME280;38381;53.688;10.776;2022-11-15T08:05:19;100834.44;;;6.19;97.24
52469;BME280;38381;53.688;10.776;2022-11-15T08:10:19;100832.22;;;6.35;96.93
52469;BME280;38381;53.688;10.776;2022-11-15T08:15:20;100829.00;;;6.43;96.98
52469;BME280;38381;53.688;10.776;2022-11-15T08:20:21;100822.16;;;6.44;96.74
52469;BME280;38381;53.688;10.776;2022-11-15T08:25:21;100831.09;;;6.58;96.47
52469;BME280;38381;53.688;10.776;2022-11-15T08:30:22;100835.63;;;6.69;96.04
52469;BME280;38381;53.688;10.776;2022-11-15T08:35:23;100829.00;;;6.80;94.84
52469;BME280;38381;53.688;10.776;2022-11-15T08:40:24;100829.03;;;6.81;94.89
52469;BME280;38381;53.688;10.776;2022-11-15T08:45:24;100828.06;;;6.76;95.15
52469;BME280;38381;53.688;10.776;2022-11-15T08:50:25;100817.34;;;6.96;93.37
52469;BME280;38381;53.688;10.776;2022-11-15T08:55:25;100820.09;;;7.03;92.81
52469;BME280;38381;53.688;10.776;2022-11-15T09:00:26;100811.28;;;6.94;93.86
52469;BME280;38381;53.688;10.776;2022-11-15T09:05:26;100818.47;;;7.09;93.19
52469;BME280;38381;53.688;10.776;2022-11-15T09:10:26;100810.28;;;7.28;92.81
52469;BME280;38381;53.688;10.776;2022-11-15T09:15:27;100806.59;;;7.17;93.40
52469;BME280;38381;53.688;10.776;2022-11-15T09:20:27;100807.63;;;7.25;93.15
52469;BME280;38381;53.688;10.776;2022-11-15T09:25:28;100806.06;;;7.33;93.43
52469;BME280;38381;53.688;10.776;2022-11-15T09:30:29;100810.47;;;7.37;93.34
52469;BME280;38381;53.688;10.776;2022-11-15T09:35:31;100814.81;;;7.40;93.50
52469;BME280;38381;53.688;10.776;2022-11-15T09:40:32;100818.66;;;7.59;92.99
52469;BME280;38381;53.688;10.776;2022-11-15T09:46:01;100818.88;;;7.73;92.14
52469;BME280;38381;53.688;10.776;2022-11-15T09:51:04;100814.66;;;7.76;92.48
52469;BME280;38381;53.688;10.776;2022-11-15T09:56:30;100819.81;;;7.76;92.70
52469;BME280;38381;53.688;10.776;2022-11-15T10:01:45;100814.88;;;7.89;92.25
52469;BME280;38381;53.688;10.776;2022-11-15T10:12:15;100812.69;;;8.12;91.69
52469;BME280;38381;53.688;10.776;2022-11-15T10:27:50;100795.75;;;8.27;92.15
52469;BME280;38381;53.688;10.776;2022-11-15T10:32:51;100790.69;;;8.34;91.65
52469;BME280;38381;53.688;10.776;2022-11-15T10:38:04;100780.63;;;8.49;90.95
52469;BME280;38381;53.688;10.776;2022-11-15T10:43:16;100776.66;;;8.73;91.14
52469;BME280;38381;53.688;10.776;2022-11-15T10:53:28;100767.75;;;9.16;88.90
52469;BME280;38381;53.688;10.776;2022-11-15T10:58:32;100763.81;;;9.48;88.51
52469;BME280;38381;53.688;10.776;2022-11-15T11:03:37;100760.59;;;9.73;87.60
52469;BME280;38381;53.688;10.776;2022-11-15T11:08:38;100750.16;;;9.65;86.95
52469;BME280;38381;53.688;10.776;2022-11-15T11:13:39;100749.31;;;9.65;86.41
52469;BME280;38381;53.688;10.776;2022-11-15T11:24:11;100740.78;;;9.75;87.00
52469;BME280;38381;53.688;10.776;2022-11-15T11:40:08;100726.22;;;9.86;86.69
52469;BME280;38381;53.688;10.776;2022-11-15T11:45:22;100714.03;;;9.78;86.92
52469;BME280;38381;53.688;10.776;2022-11-15T11:50:27;100716.66;;;9.84;86.85
52469;BME280;38381;53.688;10.776;2022-11-15T11:55:32;100703.72;;;9.82;86.80
52469;BME280;38381;53.688;10.776;2022-11-15T12:00:35;100704.66;;;9.92;86.46
52469;BME280;38381;53.688;10.776;2022-11-15T12:05:44;100699.53;;;10.00;86.64
52469;BME280;38381;53.688;10.776;2022-11-15T12:10:50;100695.22;;;9.99;86.44
52469;BME280;38381;53.688;10.776;2022-11-15T12:15:58;100689.34;;;10.23;85.28
52469;BME280;38381;53.688;10.776;2022-11-15T12:21:41;100689.25;;;10.07;85.67
52469;BME280;38381;53.688;10.776;2022-11-15T12:26:52;100681.56;;;10.21;86.02
52469;BME280;38381;53.688;10.776;2022-11-15T12:31:55;100674.00;;;10.51;84.83
52469;BME280;38381;53.688;10.776;2022-11-15T12:36:58;100673.91;;;10.34;85.65
52469;BME280;38381;53.688;10.776;2022-11-15T12:47:02;100668.78;;;10.44;85.93
52469;BME280;38381;53.688;10.776;2022-11-15T12:52:05;100673.16;;;10.58;85.36
52469;BME280;38381;53.688;10.776;2022-11-15T13:02:20;100668.78;;;10.49;85.64
52469;BME280;38381;53.688;10.776;2022-11-15T13:17:45;100641.16;;;10.57;86.34
52469;BME280;38381;53.688;10.776;2022-11-15T13:22:50;100631.66;;;10.55;87.05
52469;BME280;38381;53.688;10.776;2022-11-15T13:27:51;100637.72;;;10.60;86.92
52469;BME280;38381;53.688;10.776;2022-11-15T13:32:54;100626.50;;;10.65;86.95
52469;BME280;38381;53.688;10.776;2022-11-15T13:37:56;100626.50;;;10.65;86.87
52469;BME280;38381;53.688;10.776;2022-11-15T13:42:59;100631.72;;;10.72;86.90
52469;BME280;38381;53.688;10.776;2022-11-15T13:48:03;100612.69;;;10.74;86.48
52469;BME280;38381;53.688;10.776;2022-11-15T13:53:03;100617.94;;;10.85;86.46
52469;BME280;38381;53.688;10.776;2022-11-15T13:58:05;100613.63;;;10.92;85.70
52469;BME280;38381;53.688;10.776;2022-11-15T14:03:27;100608.41;;;10.81;86.33
52469;BME280;38381;53.688;10.776;2022-11-15T14:08:28;100614.47;;;10.86;86.64
52469;BME280;38381;53.688;10.776;2022-11-15T14:13:30;100606.69;;;10.87;86.29
52469;BME280;38381;53.688;10.776;2022-11-15T14:18:42;100592.88;;;11.01;85.41
52469;BME280;38381;53.688;10.776;2022-11-15T14:23:43;100581.63;;;11.00;85.28
52469;BME280;38381;53.688;10.776;2022-11-15T14:28:43;100575.59;;;10.94;85.42
52469;BME280;38381;53.688;10.776;2022-11-15T14:33:43;100576.44;;;11.00;84.71
52469;BME280;38381;53.688;10.776;2022-11-15T14:38:44;100587.66;;;10.90;85.68
52469;BME280;38381;53.688;10.776;2022-11-15T14:43:45;100601.50;;;10.81;86.38
52469;BME280;38381;53.688;10.776;2022-11-15T14:48:45;100585.03;;;10.72;86.59
52469;BME280;38381;53.688;10.776;2022-11-15T14:53:46;100574.66;;;10.72;86.17
52469;BME280;38381;53.688;10.776;2022-11-15T14:58:47;100572.94;;;10.74;85.97
52469;BME280;38381;53.688;10.776;2022-11-15T15:03:47;100560.81;;;10.70;85.99
52469;BME280;38381;53.688;10.776;2022-11-15T15:08:48;100554.78;;;10.74;85.77
52469;BME280;38381;53.688;10.776;2022-11-15T15:13:50;100553.88;;;10.59;86.01
52469;BME280;38381;53.688;10.776;2022-11-15T15:18:51;100554.72;;;10.52;86.48
52469;BME280;38381;53.688;10.776;2022-11-15T15:23:53;100557.28;;;10.49;86.47
52469;BME280;38381;53.688;10.776;2022-11-15T15:28:56;100562.47;;;10.40;86.38
52469;BME280;38381;53.688;10.776;2022-11-15T15:33:57;100546.84;;;10.31;86.48
52469;BME280;38381;53.688;10.776;2022-11-15T15:38:57;100545.91;;;10.21;87.13
52469;BME280;38381;53.688;10.776;2022-11-15T15:43:57;100541.59;;;10.15;88.31
52469;BME280;38381;53.688;10.776;2022-11-15T15:48:58;100551.00;;;10.02;88.76
52469;BME280;38381;53.688;10.776;2022-11-15T15:53:59;100554.38;;;9.86;89.83
52469;BME280;38381;53.688;10.776;2022-11-15T15:58:59;100560.38;;;9.79;90.83
52469;BME280;38381;53.688;10.776;2022-11-15T16:04:00;100553.47;;;9.76;91.77
52469;BME280;38381;53.688;10.776;2022-11-15T16:09:00;100561.25;;;9.79;92.35
52469;BME280;38381;53.688;10.776;2022-11-15T16:14:01;100552.66;;;9.86;91.64
52469;BME280;38381;53.688;10.776;2022-11-15T16:19:03;100556.25;;;10.16;90.75
52469;BME280;38381;53.688;10.776;2022-11-15T16:24:03;100544.19;;;10.20;90.53
52469;BME280;38381;53.688;10.776;2022-11-15T16:29:04;100548.50;;;10.16;90.72
52469;BME280;38381;53.688;10.776;2022-11-15T16:34:06;100541.66;;;10.31;89.59
52469;BME280;38381;53.688;10.776;2022-11-15T16:39:11;100539.03;;;10.21;90.01
52469;BME280;38381;53.688;10.776;2022-11-15T16:44:13;100532.13;;;10.26;89.48
52469;BME280;38381;53.688;10.776;2022-11-15T16:49:14;100532.09;;;10.17;90.28
52469;BME280;38381;53.688;10.776;2022-11-15T16:54:15;100539.00;;;10.15;90.31
52469;BME280;38381;53.688;10.776;2022-11-15T16:59:16;100544.25;;;10.31;89.52
52469;BME280;38381;53.688;10.776;2022-11-15T17:04:18;100542.56;;;10.37;89.54
52469;BME280;38381;53.688;10.776;2022-11-15T17:09:20;100543.34;;;10.22;89.66
52469;BME280;38381;53.688;10.776;2022-11-15T17:14:24;100538.25;;;10.32;89.65
52469;BME280;38381;53.688;10.776;2022-11-15T17:19:25;100531.22;;;10.23;89.12
52469;BME280;38381;53.688;10.776;2022-11-15T17:24:25;100513.94;;;10.16;90.13
52469;BME280;38381;53.688;10.776;2022-11-15T17:29:26;100511.44;;;10.34;89.16
52469;BME280;38381;53.688;10.776;2022-11-15T17:34:26;100504.47;;;10.27;89.26
52469;BME280;38381;53.688;10.776;2022-11-15T17:39:26;100498.47;;;10.31;89.05
52469;BME280;38381;53.688;10.776;2022-11-15T17:44:27;100506.16;;;10.11;89.75
52469;BME280;38381;53.688;10.776;2022-11-15T17:49:27;100505.31;;;10.24;89.28
52469;BME280;38381;53.688;10.776;2022-11-15T17:54:27;100500.97;;;10.11;89.12
52469;BME280;38381;53.688;10.776;2022-11-15T17:59:28;100494.06;;;10.13;89.04
52469;BME280;38381;53.688;10.776;2022-11-15T18:04:29;100488.81;;;9.93;89.99
52469;BME280;38381;53.688;10.776;2022-11-15T18:09:29;100493.16;;;10.02;89.24
52469;BME280;38381;53.688;10.776;2022-11-15T18:14:29;100492.28;;;10.04;89.18
52469;BME280;38381;53.688;10.776;2022-11-15T18:19:30;100497.44;;;9.95;89.76
52469;BME280;38381;53.688;10.776;2022-11-15T18:24:33;100501.66;;;9.79;90.70
52469;BME280;38381;53.688;10.776;2022-11-15T18:29:34;100498.22;;;9.82;90.76
52469;BME280;38381;53.688;10.776;2022-11-15T18:34:36;100499.84;;;9.60;91.00
52469;BME280;38381;53.688;10.776;2022-11-15T18:39:37;100507.56;;;9.55;91.04
52469;BME280;38381;53.688;10.776;2022-11-15T18:44:37;100500.75;;;9.66;89.96
52469;BME280;38381;53.688;10.776;2022-11-15T18:49:38;100509.34;;;9.65;89.44
52469;BME280;38381;53.688;10.776;2022-11-15T18:54:38;100501.47;;;9.44;89.95
52469;BME280;38381;53.688;10.776;2022-11-15T18:59:38;100498.78;;;9.30;90.18
52469;BME280;38381;53.688;10.776;2022-11-15T19:04:39;100496.88;;;9.07;90.82
52469;BME280;38381;53.688;10.776;2022-11-15T19:09:39;100509.69;;;8.95;91.51
52469;BME280;38381;53.688;10.776;2022-11-15T19:14:40;100503.78;;;9.07;90.28
52469;BME280;38381;53.688;10.776;2022-11-15T19:19:40;100507.19;;;9.06;90.43
52469;BME280;38381;53.688;10.776;2022-11-15T19:24:41;100513.22;;;9.03;90.38
52469;BME280;38381;53.688;10.776;2022-11-15T19:29:41;100508.91;;;9.04;90.04
52469;BME280;38381;53.688;10.776;2022-11-15T19:34:41;100506.31;;;9.02;89.84
52469;BME280;38381;53.688;10.776;2022-11-15T19:39:42;100490.00;;;9.14;88.95
52469;BME280;38381;53.688;10.776;2022-11-15T19:44:42;100478.69;;;8.98;89.01
52469;BME280;38381;53.688;10.776;2022-11-15T19:49:43;100473.53;;;9.01;88.80
52469;BME280;38381;53.688;10.776;2022-11-15T19:54:45;100478.72;;;9.01;88.54
52469;BME280;38381;53.688;10.776;2022-11-15T19:59:46;100481.31;;;9.03;87.74
52469;BME280;38381;53.688;10.776;2022-11-15T20:04:46;100472.56;;;8.89;87.86
52469;BME280;38381;53.688;10.776;2022-11-15T20:09:47;100470.72;;;8.72;88.84
52469;BME280;38381;53.688;10.776;2022-11-15T20:14:47;100469.00;;;8.74;88.58
52469;BME280;38381;53.688;10.776;2022-11-15T20:19:47;100478.38;;;8.64;88.63
52469;BME280;38381;53.688;10.776;2022-11-15T20:24:48;100474.06;;;8.65;88.40
52469;BME280;38381;53.688;10.776;2022-11-15T20:29:48;100471.16;;;8.36;89.30
52469;BME280;38381;53.688;10.776;2022-11-15T20:34:50;100464.56;;;8.62;88.19
52469;BME280;38381;53.688;10.776;2022-11-15T20:39:51;100468.63;;;8.40;89.15
52469;BME280;38381;53.688;10.776;2022-11-15T20:44:51;100471.03;;;8.23;89.59
52469;BME280;38381;53.688;10.776;2022-11-15T20:49:55;100465.03;;;8.27;89.13
52469;BME280;38381;53.688;10.776;2022-11-15T20:54:55;100471.19;;;8.40;88.58
52469;BME280;38381;53.688;10.776;2022-11-15T20:59:56;100464.16;;;8.25;89.21
52469;BME280;38381;53.688;10.776;2022-11-15T21:04:56;100465.78;;;8.14;90.26
52469;BME280;38381;53.688;10.776;2022-11-15T21:09:57;100451.00;;;8.04;91.22
52469;BME280;38381;53.688;10.776;2022-11-15T21:15:16;100469.25;;;8.16;90.21
52469;BME280;38381;53.688;10.776;2022-11-15T21:20:16;100466.59;;;8.10;91.01
52469;BME280;38381;53.688;10.776;2022-11-15T21:25:17;100477.94;;;8.24;90.22
52469;BME280;38381;53.688;10.776;2022-11-15T21:30:17;100455.59;;;8.30;90.02
52469;BME280;38381;53.688;10.776;2022-11-15T21:35:18;100446.88;;;8.21;90.22
52469;BME280;38381;53.688;10.776;2022-11-15T21:40:18;100447.63;;;8.08;91.01
52469;BME280;38381;53.688;10.776;2022-11-15T21:45:19;100461.38;;;8.07;91.06
52469;BME280;38381;53.688;10.776;2022-11-15T21:50:19;100465.56;;;7.96;91.83
52469;BME280;38381;53.688;10.776;2022-11-15T21:55:19;100467.25;;;7.94;92.13
52469;BME280;38381;53.688;10.776;2022-11-15T22:00:20;100462.16;;;8.00;91.32
52469;BME280;38381;53.688;10.776;2022-11-15T22:05:43;100462.88;;;7.88;91.88
52469;BME280;38381;53.688;10.776;2022-11-15T22:10:46;100460.22;;;7.85;92.24
52469;BME280;38381;53.688;10.776;2022-11-15T22:15:47;100466.22;;;7.82;92.55
52469;BME280;38381;53.688;10.776;2022-11-15T22:21:09;100455.91;;;7.82;92.43
52469;BME280;38381;53.688;10.776;2022-11-15T22:26:12;100455.00;;;7.79;92.29
52469;BME280;38381;53.688;10.776;2022-11-15T22:31:12;100450.56;;;7.69;92.33
52469;BME280;38381;53.688;10.776;2022-11-15T22:36:13;100442.72;;;7.59;92.74
52469;BME280;38381;53.688;10.776;2022-11-15T22:41:13;100434.31;;;7.76;91.74
52469;BME280;38381;53.688;10.776;2022-11-15T22:46:14;100428.09;;;7.60;92.03
52469;BME280;38381;53.688;10.776;2022-11-15T22:51:14;100429.00;;;7.63;91.66
52469;BME280;38381;53.688;10.776;2022-11-15T22:56:15;100432.41;;;7.61;91.87
52469;BME280;38381;53.688;10.776;2022-11-15T23:01:20;100421.03;;;7.47;92.50
52469;BME280;38381;53.688;10.776;2022-11-15T23:06:23;100413.28;;;7.45;91.95
52469;BME280;38381;53.688;10.776;2022-11-15T23:11:24;100414.94;;;7.41;92.48
52469;BME280;38381;53.688;10.776;2022-11-15T23:16:43;100420.81;;;7.31;92.67
52469;BME280;38381;53.688;10.776;2022-11-15T23:21:45;100418.19;;;7.28;92.67
52469;BME280;38381;53.688;10.776;2022-11-15T23:27:06;100408.78;;;7.30;92.16
52469;BME280;38381;53.688;10.776;2022-11-15T23:32:07;100402.69;;;7.27;92.33
52469;BME280;38381;53.688;10.776;2022-11-15T23:37:26;100397.41;;;7.16;92.82
52469;BME280;38381;53.688;10.776;2022-11-15T23:42:27;100383.59;;;7.14;92.78
52469;BME280;38381;53.688;10.776;2022-11-15T23:47:27;100397.16;;;7.00;93.06
52469;BME280;38381;53.688;10.776;2022-11-15T23:52:28;100391.03;;;6.94;93.20
52469;BME280;38381;53.688;10.776;2022-11-15T23:57:28;100396.19;;;6.94;93.46
